Terminal Aerodrome Forecast
Issued by NWS

Home | Current Version | Previous Version | Text Only | Print | Product List | Glossary On
Versions: 1 2 3 4 5 6 7 8 9 10 11 12 13 14 15 16 17 18 19 20 21
000
FTUS45 KCYS 210526
TAFAIA
TAF
KAIA 210526Z 2106/2206 16010KT P6SM VCSH SCT070 BKN100
      TEMPO 2106/2110 VRB20G30KT 6SM -TSRA BKN070CB
     FM211000 24006KT P6SM BKN150
     FM211700 33012KT P6SM SCT150=

USA.gov is the U.S. government's official web portal to all federal, state and local government web resources and services.